sensor_id;sensor_type;location;lat;lon;timestamp;temperature;humidity
47813;DHT22;34221;45.296;9.516;2023-05-14T00:00:06;15.60;93.50
47813;DHT22;34221;45.296;9.516;2023-05-14T00:00:22;15.60;93.60
47813;DHT22;34221;45.296;9.516;2023-05-14T00:00:37;15.50;93.80
47813;DHT22;34221;45.296;9.516;2023-05-14T00:00:53;15.60;93.70
47813;DHT22;34221;45.296;9.516;2023-05-14T00:01:08;15.60;93.80
47813;DHT22;34221;45.296;9.516;2023-05-14T00:01:23;15.60;94.10
47813;DHT22;34221;45.296;9.516;2023-05-14T00:01:40;15.50;94.10
47813;DHT22;34221;45.296;9.516;2023-05-14T00:01:55;15.60;94.10
47813;DHT22;34221;45.296;9.516;2023-05-14T00:02:10;15.60;93.80
47813;DHT22;34221;45.296;9.516;2023-05-14T00:02:26;15.60;93.60
47813;DHT22;34221;45.296;9.516;2023-05-14T00:02:41;15.60;93.60
47813;DHT22;34221;45.296;9.516;2023-05-14T00:02:57;15.60;93.60
47813;DHT22;34221;45.296;9.516;2023-05-14T00:03:12;15.60;93.50
47813;DHT22;34221;45.296;9.516;2023-05-14T00:03:27;15.60;93.70
47813;DHT22;34221;45.296;9.516;2023-05-14T00:03:43;15.60;93.90
47813;DHT22;34221;45.296;9.516;2023-05-14T00:03:58;15.60;94.10
47813;DHT22;34221;45.296;9.516;2023-05-14T00:04:13;15.60;94.10
47813;DHT22;34221;45.296;9.516;2023-05-14T00:04:29;15.60;93.90
47813;DHT22;34221;45.296;9.516;2023-05-14T00:04:45;15.60;93.70
47813;DHT22;34221;45.296;9.516;2023-05-14T00:05:00;15.60;94.10
47813;DHT22;34221;45.296;9.516;2023-05-14T00:05:16;15.60;94.10
47813;DHT22;34221;45.296;9.516;2023-05-14T00:05:31;15.70;93.40
47813;DHT22;34221;45.296;9.516;2023-05-14T00:05:47;15.70;93.10
47813;DHT22;34221;45.296;9.516;2023-05-14T00:06:03;15.70;93.50
47813;DHT22;34221;45.296;9.516;2023-05-14T00:06:18;15.70;93.60
47813;DHT22;34221;45.296;9.516;2023-05-14T00:06:34;15.70;93.80
47813;DHT22;34221;45.296;9.516;2023-05-14T00:06:49;15.70;94.10
47813;DHT22;34221;45.296;9.516;2023-05-14T00:07:04;15.70;94.00
47813;DHT22;34221;45.296;9.516;2023-05-14T00:07:19;15.70;94.00
47813;DHT22;34221;45.296;9.516;2023-05-14T00:07:35;15.70;93.90
47813;DHT22;34221;45.296;9.516;2023-05-14T00:07:50;15.70;94.10
47813;DHT22;34221;45.296;9.516;2023-05-14T00:08:06;15.70;94.20
47813;DHT22;34221;45.296;9.516;2023-05-14T00:08:21;15.70;93.90
47813;DHT22;34221;45.296;9.516;2023-05-14T00:08:37;15.70;93.90
47813;DHT22;34221;45.296;9.516;2023-05-14T00:08:52;15.60;93.70
47813;DHT22;34221;45.296;9.516;2023-05-14T00:09:07;15.70;93.90
47813;DHT22;34221;45.296;9.516;2023-05-14T00:09:23;15.70;93.90
47813;DHT22;34221;45.296;9.516;2023-05-14T00:09:39;15.70;93.80
47813;DHT22;34221;45.296;9.516;2023-05-14T00:09:56;15.60;93.70
47813;DHT22;34221;45.296;9.516;2023-05-14T00:10:11;15.70;93.50
47813;DHT22;34221;45.296;9.516;2023-05-14T00:10:27;15.70;93.60
47813;DHT22;34221;45.296;9.516;2023-05-14T00:11:01;15.70;93.80
47813;DHT22;34221;45.296;9.516;2023-05-14T00:11:16;15.70;94.00
47813;DHT22;34221;45.296;9.516;2023-05-14T00:11:32;15.60;93.90
47813;DHT22;34221;45.296;9.516;2023-05-14T00:11:48;15.60;93.90
47813;DHT22;34221;45.296;9.516;2023-05-14T00:12:03;15.70;93.90
47813;DHT22;34221;45.296;9.516;2023-05-14T00:12:18;15.70;93.90
47813;DHT22;34221;45.296;9.516;2023-05-14T00:12:34;15.70;93.80
47813;DHT22;34221;45.296;9.516;2023-05-14T00:12:50;15.70;93.80
47813;DHT22;34221;45.296;9.516;2023-05-14T00:13:06;15.60;93.80
47813;DHT22;34221;45.296;9.516;2023-05-14T00:13:21;15.60;93.60
47813;DHT22;34221;45.296;9.516;2023-05-14T00:13:37;15.60;93.90
47813;DHT22;34221;45.296;9.516;2023-05-14T00:13:52;15.60;94.00
47813;DHT22;34221;45.296;9.516;2023-05-14T00:14:08;15.60;93.90
47813;DHT22;34221;45.296;9.516;2023-05-14T00:14:23;15.60;93.80
47813;DHT22;34221;45.296;9.516;2023-05-14T00:14:39;15.60;93.80
47813;DHT22;34221;45.296;9.516;2023-05-14T00:14:54;15.60;93.60
47813;DHT22;34221;45.296;9.516;2023-05-14T00:15:09;15.60;93.50
47813;DHT22;34221;45.296;9.516;2023-05-14T00:15:24;15.60;93.70
47813;DHT22;34221;45.296;9.516;2023-05-14T00:15:41;15.60;93.90
47813;DHT22;34221;45.296;9.516;2023-05-14T00:15:57;15.60;94.00
47813;DHT22;34221;45.296;9.516;2023-05-14T00:16:12;15.60;94.20
47813;DHT22;34221;45.296;9.516;2023-05-14T00:16:28;15.60;94.20
47813;DHT22;34221;45.296;9.516;2023-05-14T00:16:43;15.60;94.20
47813;DHT22;34221;45.296;9.516;2023-05-14T00:16:59;15.60;93.90
47813;DHT22;34221;45.296;9.516;2023-05-14T00:17:15;15.60;93.90
47813;DHT22;34221;45.296;9.516;2023-05-14T00:17:31;15.60;93.90
47813;DHT22;34221;45.296;9.516;2023-05-14T00:17:46;15.60;94.10
47813;DHT22;34221;45.296;9.516;2023-05-14T00:18:02;15.70;93.90
47813;DHT22;34221;45.296;9.516;2023-05-14T00:18:17;15.70;93.80
47813;DHT22;34221;45.296;9.516;2023-05-14T00:18:32;15.60;94.10
47813;DHT22;34221;45.296;9.516;2023-05-14T00:18:48;15.60;94.10
47813;DHT22;34221;45.296;9.516;2023-05-14T00:19:03;15.70;93.80
47813;DHT22;34221;45.296;9.516;2023-05-14T00:19:19;15.60;94.00
47813;DHT22;34221;45.296;9.516;2023-05-14T00:19:34;15.60;93.90
47813;DHT22;34221;45.296;9.516;2023-05-14T00:19:49;15.60;93.90
47813;DHT22;34221;45.296;9.516;2023-05-14T00:20:05;15.70;93.90
47813;DHT22;34221;45.296;9.516;2023-05-14T00:20:21;15.60;94.10
47813;DHT22;34221;45.296;9.516;2023-05-14T00:20:37;15.70;94.00
47813;DHT22;34221;45.296;9.516;2023-05-14T00:20:52;15.60;94.10
47813;DHT22;34221;45.296;9.516;2023-05-14T00:21:08;15.60;94.10
47813;DHT22;34221;45.296;9.516;2023-05-14T00:21:23;15.60;94.10
47813;DHT22;34221;45.296;9.516;2023-05-14T00:21:39;15.60;94.10
47813;DHT22;34221;45.296;9.516;2023-05-14T00:21:54;15.60;94.20
47813;DHT22;34221;45.296;9.516;2023-05-14T00:22:09;15.70;94.20
47813;DHT22;34221;45.296;9.516;2023-05-14T00:22:24;15.60;94.10
47813;DHT22;34221;45.296;9.516;2023-05-14T00:22:40;15.70;94.10
47813;DHT22;34221;45.296;9.516;2023-05-14T00:22:56;15.70;94.20
47813;DHT22;34221;45.296;9.516;2023-05-14T00:23:12;15.70;94.20
47813;DHT22;34221;45.296;9.516;2023-05-14T00:23:27;15.60;94.30
47813;DHT22;34221;45.296;9.516;2023-05-14T00:23:42;15.70;94.50
47813;DHT22;34221;45.296;9.516;2023-05-14T00:23:58;15.70;94.40
47813;DHT22;34221;45.296;9.516;2023-05-14T00:24:14;15.70;94.10
47813;DHT22;34221;45.296;9.516;2023-05-14T00:24:29;15.70;94.20
47813;DHT22;34221;45.296;9.516;2023-05-14T00:24:44;15.70;94.20
47813;DHT22;34221;45.296;9.516;2023-05-14T00:25:00;15.70;94.10
47813;DHT22;34221;45.296;9.516;2023-05-14T00:25:15;15.70;94.10
47813;DHT22;34221;45.296;9.516;2023-05-14T00:25:31;15.70;94.20
47813;DHT22;34221;45.296;9.516;2023-05-14T00:25:46;15.70;94.30
47813;DHT22;34221;45.296;9.516;2023-05-14T00:26:01;15.70;94.30
47813;DHT22;34221;45.296;9.516;2023-05-14T00:26:17;15.70;94.00
47813;DHT22;34221;45.296;9.516;2023-05-14T00:26:34;15.70;93.90
47813;DHT22;34221;45.296;9.516;2023-05-14T00:26:49;15.70;94.00
47813;DHT22;34221;45.296;9.516;2023-05-14T00:27:04;15.70;93.90
47813;DHT22;34221;45.296;9.516;2023-05-14T00:27:21;15.70;93.90
47813;DHT22;34221;45.296;9.516;2023-05-14T00:27:36;15.70;93.80
47813;DHT22;34221;45.296;9.516;2023-05-14T00:27:51;15.70;93.70
47813;DHT22;34221;45.296;9.516;2023-05-14T00:28:07;15.70;93.90
47813;DHT22;34221;45.296;9.516;2023-05-14T00:28:22;15.70;93.90
47813;DHT22;34221;45.296;9.516;2023-05-14T00:28:37;15.70;94.00
47813;DHT22;34221;45.296;9.516;2023-05-14T00:28:53;15.70;94.00
47813;DHT22;34221;45.296;9.516;2023-05-14T00:29:09;15.60;94.00
47813;DHT22;34221;45.296;9.516;2023-05-14T00:29:24;15.70;93.80
47813;DHT22;34221;45.296;9.516;2023-05-14T00:29:39;15.70;93.70
47813;DHT22;34221;45.296;9.516;2023-05-14T00:29:55;15.60;93.70
47813;DHT22;34221;45.296;9.516;2023-05-14T00:30:10;15.70;93.80
47813;DHT22;34221;45.296;9.516;2023-05-14T00:30:26;15.60;93.80
47813;DHT22;34221;45.296;9.516;2023-05-14T00:30:41;15.60;93.80
47813;DHT22;34221;45.296;9.516;2023-05-14T00:30:58;15.60;93.80
47813;DHT22;34221;45.296;9.516;2023-05-14T00:31:13;15.60;94.00
47813;DHT22;34221;45.296;9.516;2023-05-14T00:31:29;15.70;94.00
47813;DHT22;34221;45.296;9.516;2023-05-14T00:31:44;15.70;94.00
47813;DHT22;34221;45.296;9.516;2023-05-14T00:31:59;15.70;93.80
47813;DHT22;34221;45.296;9.516;2023-05-14T00:32:14;15.70;93.90
47813;DHT22;34221;45.296;9.516;2023-05-14T00:32:29;15.70;94.00
47813;DHT22;34221;45.296;9.516;2023-05-14T00:32:45;15.70;94.10
47813;DHT22;34221;45.296;9.516;2023-05-14T00:33:00;15.70;94.10
47813;DHT22;34221;45.296;9.516;2023-05-14T00:33:16;15.70;94.30
47813;DHT22;34221;45.296;9.516;2023-05-14T00:33:31;15.70;94.40
47813;DHT22;34221;45.296;9.516;2023-05-14T00:33:47;15.70;94.30
47813;DHT22;34221;45.296;9.516;2023-05-14T00:34:02;15.70;94.40
47813;DHT22;34221;45.296;9.516;2023-05-14T00:34:18;15.70;94.50
47813;DHT22;34221;45.296;9.516;2023-05-14T00:34:34;15.70;94.40
47813;DHT22;34221;45.296;9.516;2023-05-14T00:34:50;15.70;94.40
47813;DHT22;34221;45.296;9.516;2023-05-14T00:35:06;15.70;94.50
47813;DHT22;34221;45.296;9.516;2023-05-14T00:35:22;15.80;94.70
47813;DHT22;34221;45.296;9.516;2023-05-14T00:35:38;15.80;94.60
47813;DHT22;34221;45.296;9.516;2023-05-14T00:35:54;15.80;94.60
47813;DHT22;34221;45.296;9.516;2023-05-14T00:36:09;15.70;94.70
47813;DHT22;34221;45.296;9.516;2023-05-14T00:36:24;15.80;94.70
47813;DHT22;34221;45.296;9.516;2023-05-14T00:36:39;15.80;94.60
47813;DHT22;34221;45.296;9.516;2023-05-14T00:36:54;15.80;94.60
47813;DHT22;34221;45.296;9.516;2023-05-14T00:37:09;15.80;94.70
47813;DHT22;34221;45.296;9.516;2023-05-14T00:37:24;15.80;94.70
47813;DHT22;34221;45.296;9.516;2023-05-14T00:37:39;15.80;94.70
47813;DHT22;34221;45.296;9.516;2023-05-14T00:37:54;15.80;94.70
47813;DHT22;34221;45.296;9.516;2023-05-14T00:38:10;15.80;94.70
47813;DHT22;34221;45.296;9.516;2023-05-14T00:38:30;15.80;94.70
47813;DHT22;34221;45.296;9.516;2023-05-14T00:38:47;15.90;94.80
47813;DHT22;34221;45.296;9.516;2023-05-14T00:39:03;15.80;94.70
47813;DHT22;34221;45.296;9.516;2023-05-14T00:39:18;15.90;94.70
47813;DHT22;34221;45.296;9.516;2023-05-14T00:39:34;15.80;94.60
47813;DHT22;34221;45.296;9.516;2023-05-14T00:39:51;15.80;94.60
47813;DHT22;34221;45.296;9.516;2023-05-14T00:40:07;15.80;94.60
47813;DHT22;34221;45.296;9.516;2023-05-14T00:40:26;15.90;94.70
47813;DHT22;34221;45.296;9.516;2023-05-14T00:40:42;15.90;94.60
47813;DHT22;34221;45.296;9.516;2023-05-14T00:40:59;15.90;94.60
47813;DHT22;34221;45.296;9.516;2023-05-14T00:41:15;15.90;94.50
47813;DHT22;34221;45.296;9.516;2023-05-14T00:41:31;15.90;94.60
47813;DHT22;34221;45.296;9.516;2023-05-14T00:41:47;15.80;94.70
47813;DHT22;34221;45.296;9.516;2023-05-14T00:42:02;15.80;94.80
47813;DHT22;34221;45.296;9.516;2023-05-14T00:42:18;15.80;94.90
47813;DHT22;34221;45.296;9.516;2023-05-14T00:42:34;15.80;94.90
47813;DHT22;34221;45.296;9.516;2023-05-14T00:42:49;15.80;94.90
47813;DHT22;34221;45.296;9.516;2023-05-14T00:43:04;15.80;94.60
47813;DHT22;34221;45.296;9.516;2023-05-14T00:43:21;15.80;94.40
47813;DHT22;34221;45.296;9.516;2023-05-14T00:43:37;15.80;94.80
47813;DHT22;34221;45.296;9.516;2023-05-14T00:43:52;15.90;94.90
47813;DHT22;34221;45.296;9.516;2023-05-14T00:44:07;15.90;94.90
47813;DHT22;34221;45.296;9.516;2023-05-14T00:44:22;15.90;94.90
47813;DHT22;34221;45.296;9.516;2023-05-14T00:44:38;15.90;94.70
47813;DHT22;34221;45.296;9.516;2023-05-14T00:44:53;15.90;94.70
47813;DHT22;34221;45.296;9.516;2023-05-14T00:45:09;15.90;94.80
47813;DHT22;34221;45.296;9.516;2023-05-14T00:45:24;15.80;94.80
47813;DHT22;34221;45.296;9.516;2023-05-14T00:45:40;15.80;94.70
47813;DHT22;34221;45.296;9.516;2023-05-14T00:45:57;15.80;94.90
47813;DHT22;34221;45.296;9.516;2023-05-14T00:46:13;15.80;94.70
47813;DHT22;34221;45.296;9.516;2023-05-14T00:46:32;15.80;94.70
47813;DHT22;34221;45.296;9.516;2023-05-14T00:46:49;15.80;94.70
47813;DHT22;34221;45.296;9.516;2023-05-14T00:47:05;15.80;94.60
47813;DHT22;34221;45.296;9.516;2023-05-14T00:47:21;15.80;94.60
47813;DHT22;34221;45.296;9.516;2023-05-14T00:47:37;15.80;94.60
47813;DHT22;34221;45.296;9.516;2023-05-14T00:47:54;15.80;94.70
47813;DHT22;34221;45.296;9.516;2023-05-14T00:48:11;15.80;94.60
47813;DHT22;34221;45.296;9.516;2023-05-14T00:48:26;15.80;94.40
47813;DHT22;34221;45.296;9.516;2023-05-14T00:48:42;15.80;94.30
47813;DHT22;34221;45.296;9.516;2023-05-14T00:48:58;15.80;94.30
47813;DHT22;34221;45.296;9.516;2023-05-14T00:49:15;15.80;94.50
47813;DHT22;34221;45.296;9.516;2023-05-14T00:49:30;15.80;94.50
47813;DHT22;34221;45.296;9.516;2023-05-14T00:49:46;15.80;94.40
47813;DHT22;34221;45.296;9.516;2023-05-14T00:50:02;15.80;94.50
47813;DHT22;34221;45.296;9.516;2023-05-14T00:50:19;15.80;94.60
47813;DHT22;34221;45.296;9.516;2023-05-14T00:50:35;15.80;94.70
47813;DHT22;34221;45.296;9.516;2023-05-14T00:50:52;15.80;94.90
47813;DHT22;34221;45.296;9.516;2023-05-14T00:51:07;15.80;95.00
47813;DHT22;34221;45.296;9.516;2023-05-14T00:51:23;15.80;94.90
47813;DHT22;34221;45.296;9.516;2023-05-14T00:51:39;15.80;94.80
47813;DHT22;34221;45.296;9.516;2023-05-14T00:51:55;15.80;94.60
47813;DHT22;34221;45.296;9.516;2023-05-14T00:52:14;15.80;94.50
47813;DHT22;34221;45.296;9.516;2023-05-14T00:52:31;15.80;94.40
47813;DHT22;34221;45.296;9.516;2023-05-14T00:52:46;15.80;94.40
47813;DHT22;34221;45.296;9.516;2023-05-14T00:53:02;15.80;94.30
47813;DHT22;34221;45.296;9.516;2023-05-14T00:53:24;15.80;94.50
47813;DHT22;34221;45.296;9.516;2023-05-14T00:53:40;15.80;94.40
47813;DHT22;34221;45.296;9.516;2023-05-14T00:53:55;15.80;94.30
47813;DHT22;34221;45.296;9.516;2023-05-14T00:54:12;15.80;94.40
47813;DHT22;34221;45.296;9.516;2023-05-14T00:54:30;15.80;94.30
47813;DHT22;34221;45.296;9.516;2023-05-14T00:54:46;15.80;94.30
47813;DHT22;34221;45.296;9.516;2023-05-14T00:55:04;15.80;94.30
47813;DHT22;34221;45.296;9.516;2023-05-14T00:55:20;15.80;94.20
47813;DHT22;34221;45.296;9.516;2023-05-14T00:55:37;15.80;94.50
47813;DHT22;34221;45.296;9.516;2023-05-14T00:55:53;15.70;94.40
47813;DHT22;34221;45.296;9.516;2023-05-14T00:56:08;15.80;94.20
47813;DHT22;34221;45.296;9.516;2023-05-14T00:56:25;15.80;94.20
47813;DHT22;34221;45.296;9.516;2023-05-14T00:56:44;15.80;94.30
47813;DHT22;34221;45.296;9.516;2023-05-14T00:57:01;15.80;94.30
47813;DHT22;34221;45.296;9.516;2023-05-14T00:57:17;15.80;94.60
47813;DHT22;34221;45.296;9.516;2023-05-14T00:57:33;15.80;94.70
47813;DHT22;34221;45.296;9.516;2023-05-14T00:57:50;15.80;94.70
47813;DHT22;34221;45.296;9.516;2023-05-14T00:58:14;15.80;94.70
47813;DHT22;34221;45.296;9.516;2023-05-14T00:58:30;15.80;94.80
47813;DHT22;34221;45.296;9.516;2023-05-14T00:58:45;15.80;94.90
47813;DHT22;34221;45.296;9.516;2023-05-14T00:59:00;15.70;94.80
47813;DHT22;34221;45.296;9.516;2023-05-14T00:59:16;15.70;94.70
47813;DHT22;34221;45.296;9.516;2023-05-14T00:59:31;15.70;94.80
47813;DHT22;34221;45.296;9.516;2023-05-14T00:59:47;15.70;94.90
47813;DHT22;34221;45.296;9.516;2023-05-14T01:00:03;15.70;95.00
47813;DHT22;34221;45.296;9.516;2023-05-14T01:00:20;15.70;95.20
47813;DHT22;34221;45.296;9.516;2023-05-14T01:00:36;15.70;95.20
47813;DHT22;34221;45.296;9.516;2023-05-14T01:00:52;15.70;95.30
47813;DHT22;34221;45.296;9.516;2023-05-14T01:01:08;15.70;95.50
47813;DHT22;34221;45.296;9.516;2023-05-14T01:01:23;15.70;95.50
47813;DHT22;34221;45.296;9.516;2023-05-14T01:01:39;15.70;95.40
47813;DHT22;34221;45.296;9.516;2023-05-14T01:01:54;15.70;95.50
47813;DHT22;34221;45.296;9.516;2023-05-14T01:02:10;15.70;95.60
47813;DHT22;34221;45.296;9.516;2023-05-14T01:02:25;15.70;95.70
47813;DHT22;34221;45.296;9.516;2023-05-14T01:02:40;15.70;95.70
47813;DHT22;34221;45.296;9.516;2023-05-14T01:02:55;15.80;95.70
47813;DHT22;34221;45.296;9.516;2023-05-14T01:03:09;15.80;95.60
47813;DHT22;34221;45.296;9.516;2023-05-14T01:03:26;15.80;95.50
47813;DHT22;34221;45.296;9.516;2023-05-14T01:03:41;15.80;95.40
47813;DHT22;34221;45.296;9.516;2023-05-14T01:03:57;15.80;95.40
47813;DHT22;34221;45.296;9.516;2023-05-14T01:04:12;15.80;95.40
47813;DHT22;34221;45.296;9.516;2023-05-14T01:04:28;15.80;95.30
47813;DHT22;34221;45.296;9.516;2023-05-14T01:04:43;15.80;95.40
47813;DHT22;34221;45.296;9.516;2023-05-14T01:04:58;15.80;95.40
47813;DHT22;34221;45.296;9.516;2023-05-14T01:05:14;15.80;95.30
47813;DHT22;34221;45.296;9.516;2023-05-14T01:05:41;15.80;95.30
47813;DHT22;34221;45.296;9.516;2023-05-14T01:08:31;15.90;95.20
47813;DHT22;34221;45.296;9.516;2023-05-14T01:10:49;15.90;95.20
47813;DHT22;34221;45.296;9.516;2023-05-14T01:12:33;15.90;95.00
47813;DHT22;34221;45.296;9.516;2023-05-14T01:13:15;15.80;94.80
47813;DHT22;34221;45.296;9.516;2023-05-14T01:14:06;15.90;94.90
47813;DHT22;34221;45.296;9.516;2023-05-14T01:14:41;15.80;95.10
47813;DHT22;34221;45.296;9.516;2023-05-14T01:15:22;15.80;95.20
47813;DHT22;34221;45.296;9.516;2023-05-14T01:15:40;15.90;95.20
47813;DHT22;34221;45.296;9.516;2023-05-14T01:15:58;15.90;94.80
47813;DHT22;34221;45.296;9.516;2023-05-14T01:16:16;15.80;94.80
47813;DHT22;34221;45.296;9.516;2023-05-14T01:16:33;15.80;94.90
47813;DHT22;34221;45.296;9.516;2023-05-14T01:16:55;15.80;95.00
47813;DHT22;34221;45.296;9.516;2023-05-14T01:17:12;15.80;95.00
47813;DHT22;34221;45.296;9.516;2023-05-14T01:17:31;15.80;94.90
47813;DHT22;34221;45.296;9.516;2023-05-14T01:17:53;15.80;94.80
47813;DHT22;34221;45.296;9.516;2023-05-14T01:18:13;15.80;94.70
47813;DHT22;34221;45.296;9.516;2023-05-14T01:18:31;15.80;94.70
47813;DHT22;34221;45.296;9.516;2023-05-14T01:18:49;15.80;94.80
47813;DHT22;34221;45.296;9.516;2023-05-14T01:19:12;15.80;94.80
47813;DHT22;34221;45.296;9.516;2023-05-14T01:19:42;15.80;94.80
47813;DHT22;34221;45.296;9.516;2023-05-14T01:19:59;15.80;94.80
47813;DHT22;34221;45.296;9.516;2023-05-14T01:20:15;15.80;94.80
47813;DHT22;34221;45.296;9.516;2023-05-14T01:20:30;15.80;94.90
47813;DHT22;34221;45.296;9.516;2023-05-14T01:20:49;15.80;94.80
47813;DHT22;34221;45.296;9.516;2023-05-14T01:21:23;15.80;94.80
47813;DHT22;34221;45.296;9.516;2023-05-14T01:21:48;15.80;94.70
47813;DHT22;34221;45.296;9.516;2023-05-14T01:22:03;15.80;94.60
47813;DHT22;34221;45.296;9.516;2023-05-14T01:22:18;15.80;94.60
47813;DHT22;34221;45.296;9.516;2023-05-14T01:22:33;15.80;94.60
47813;DHT22;34221;45.296;9.516;2023-05-14T01:22:49;15.80;94.60
47813;DHT22;34221;45.296;9.516;2023-05-14T01:23:04;15.80;94.60
47813;DHT22;34221;45.296;9.516;2023-05-14T01:23:19;15.80;94.60
47813;DHT22;34221;45.296;9.516;2023-05-14T01:23:35;15.80;94.50
47813;DHT22;34221;45.296;9.516;2023-05-14T01:23:51;15.80;94.50
47813;DHT22;34221;45.296;9.516;2023-05-14T01:24:07;15.80;94.50
47813;DHT22;34221;45.296;9.516;2023-05-14T01:24:23;15.80;94.30
47813;DHT22;34221;45.296;9.516;2023-05-14T01:24:38;15.90;94.30
47813;DHT22;34221;45.296;9.516;2023-05-14T01:24:54;15.80;94.40
47813;DHT22;34221;45.296;9.516;2023-05-14T01:25:09;15.90;94.40
47813;DHT22;34221;45.296;9.516;2023-05-14T01:25:25;15.90;94.40
47813;DHT22;34221;45.296;9.516;2023-05-14T01:25:40;15.90;94.40
47813;DHT22;34221;45.296;9.516;2023-05-14T01:25:55;15.90;94.40
47813;DHT22;34221;45.296;9.516;2023-05-14T01:26:10;15.80;94.30
47813;DHT22;34221;45.296;9.516;2023-05-14T01:26:25;15.80;94.40
47813;DHT22;34221;45.296;9.516;2023-05-14T01:26:40;15.80;94.30
47813;DHT22;34221;45.296;9.516;2023-05-14T01:27:17;15.80;94.30
47813;DHT22;34221;45.296;9.516;2023-05-14T01:28:35;15.80;94.30
47813;DHT22;34221;45.296;9.516;2023-05-14T01:28:52;15.70;94.40
47813;DHT22;34221;45.296;9.516;2023-05-14T01:29:22;15.70;94.50
47813;DHT22;34221;45.296;9.516;2023-05-14T01:29:44;15.70;94.80
47813;DHT22;34221;45.296;9.516;2023-05-14T01:30:33;15.60;94.90
47813;DHT22;34221;45.296;9.516;2023-05-14T01:30:56;15.70;95.00
47813;DHT22;34221;45.296;9.516;2023-05-14T01:31:17;15.70;95.10
47813;DHT22;34221;45.296;9.516;2023-05-14T01:31:39;15.70;95.00
47813;DHT22;34221;45.296;9.516;2023-05-14T01:31:58;15.70;95.00
47813;DHT22;34221;45.296;9.516;2023-05-14T01:32:16;15.70;95.10
47813;DHT22;34221;45.296;9.516;2023-05-14T01:32:32;15.70;95.10
47813;DHT22;34221;45.296;9.516;2023-05-14T01:32:51;15.70;95.10
47813;DHT22;34221;45.296;9.516;2023-05-14T01:33:12;15.70;95.00
47813;DHT22;34221;45.296;9.516;2023-05-14T01:33:30;15.70;95.20
47813;DHT22;34221;45.296;9.516;2023-05-14T01:33:48;15.70;95.10
47813;DHT22;34221;45.296;9.516;2023-05-14T01:34:04;15.70;95.10
47813;DHT22;34221;45.296;9.516;2023-05-14T01:34:21;15.70;95.00
47813;DHT22;34221;45.296;9.516;2023-05-14T01:34:38;15.70;95.00
47813;DHT22;34221;45.296;9.516;2023-05-14T01:34:56;15.80;95.10
47813;DHT22;34221;45.296;9.516;2023-05-14T01:35:12;15.80;95.20
47813;DHT22;34221;45.296;9.516;2023-05-14T01:35:29;15.80;95.30
47813;DHT22;34221;45.296;9.516;2023-05-14T01:35:44;15.80;95.10
47813;DHT22;34221;45.296;9.516;2023-05-14T01:36:00;15.80;95.10
47813;DHT22;34221;45.296;9.516;2023-05-14T01:36:15;15.80;95.10
47813;DHT22;34221;45.296;9.516;2023-05-14T01:36:31;15.80;95.10
47813;DHT22;34221;45.296;9.516;2023-05-14T01:36:47;15.80;95.10
47813;DHT22;34221;45.296;9.516;2023-05-14T01:37:04;15.80;95.10
47813;DHT22;34221;45.296;9.516;2023-05-14T01:37:20;15.70;95.10
47813;DHT22;34221;45.296;9.516;2023-05-14T01:37:37;15.80;95.20
47813;DHT22;34221;45.296;9.516;2023-05-14T01:37:56;15.80;95.10
47813;DHT22;34221;45.296;9.516;2023-05-14T01:38:16;15.80;95.10
47813;DHT22;34221;45.296;9.516;2023-05-14T01:38:33;15.80;95.10
47813;DHT22;34221;45.296;9.516;2023-05-14T01:38:50;15.80;95.10
47813;DHT22;34221;45.296;9.516;2023-05-14T01:39:05;15.80;95.00
47813;DHT22;34221;45.296;9.516;2023-05-14T01:39:24;15.80;95.00
47813;DHT22;34221;45.296;9.516;2023-05-14T01:39:41;15.80;95.00
47813;DHT22;34221;45.296;9.516;2023-05-14T01:39:57;15.80;95.00
47813;DHT22;34221;45.296;9.516;2023-05-14T01:40:13;15.80;95.00
47813;DHT22;34221;45.296;9.516;2023-05-14T01:40:30;15.80;95.00
47813;DHT22;34221;45.296;9.516;2023-05-14T01:40:46;15.80;95.10
47813;DHT22;34221;45.296;9.516;2023-05-14T01:41:03;15.80;95.10
47813;DHT22;34221;45.296;9.516;2023-05-14T01:41:19;15.80;95.00
47813;DHT22;34221;45.296;9.516;2023-05-14T01:41:37;15.80;95.10
47813;DHT22;34221;45.296;9.516;2023-05-14T01:41:53;15.80;95.10
47813;DHT22;34221;45.296;9.516;2023-05-14T01:42:09;15.80;95.00
47813;DHT22;34221;45.296;9.516;2023-05-14T01:42:24;15.80;94.90
47813;DHT22;34221;45.296;9.516;2023-05-14T01:42:40;15.80;94.90
47813;DHT22;34221;45.296;9.516;2023-05-14T01:42:56;15.80;94.80
47813;DHT22;34221;45.296;9.516;2023-05-14T01:43:11;15.80;94.80
47813;DHT22;34221;45.296;9.516;2023-05-14T01:43:27;15.80;94.80
47813;DHT22;34221;45.296;9.516;2023-05-14T01:43:44;15.80;94.80
47813;DHT22;34221;45.296;9.516;2023-05-14T01:44:00;15.80;94.70
47813;DHT22;34221;45.296;9.516;2023-05-14T01:44:15;15.80;94.70
47813;DHT22;34221;45.296;9.516;2023-05-14T01:44:31;15.80;94.70
47813;DHT22;34221;45.296;9.516;2023-05-14T01:44:48;15.80;94.70
47813;DHT22;34221;45.296;9.516;2023-05-14T01:45:04;15.80;94.80
47813;DHT22;34221;45.296;9.516;2023-05-14T01:45:20;15.80;94.70
47813;DHT22;34221;45.296;9.516;2023-05-14T01:45:35;15.80;94.70
47813;DHT22;34221;45.296;9.516;2023-05-14T01:45:50;15.80;94.70
47813;DHT22;34221;45.296;9.516;2023-05-14T01:46:06;15.80;94.70
47813;DHT22;34221;45.296;9.516;2023-05-14T01:46:21;15.80;94.60
47813;DHT22;34221;45.296;9.516;2023-05-14T01:46:40;15.80;94.60
47813;DHT22;34221;45.296;9.516;2023-05-14T01:46:55;15.80;95.00
47813;DHT22;34221;45.296;9.516;2023-05-14T01:47:10;15.80;94.80
47813;DHT22;34221;45.296;9.516;2023-05-14T01:47:26;15.80;94.80
47813;DHT22;34221;45.296;9.516;2023-05-14T01:47:41;15.80;95.00
47813;DHT22;34221;45.296;9.516;2023-05-14T01:47:56;15.80;95.00
47813;DHT22;34221;45.296;9.516;2023-05-14T01:48:11;15.80;95.00
47813;DHT22;34221;45.296;9.516;2023-05-14T01:48:27;15.80;95.00
47813;DHT22;34221;45.296;9.516;2023-05-14T01:48:43;15.80;95.10
47813;DHT22;34221;45.296;9.516;2023-05-14T01:48:59;15.80;95.20
47813;DHT22;34221;45.296;9.516;2023-05-14T01:49:14;15.80;95.10
47813;DHT22;34221;45.296;9.516;2023-05-14T01:49:31;15.80;95.20
47813;DHT22;34221;45.296;9.516;2023-05-14T01:49:47;15.80;95.20
47813;DHT22;34221;45.296;9.516;2023-05-14T01:50:02;15.80;95.40
47813;DHT22;34221;45.296;9.516;2023-05-14T01:50:18;15.80;95.40
47813;DHT22;34221;45.296;9.516;2023-05-14T01:50:33;15.80;95.40
47813;DHT22;34221;45.296;9.516;2023-05-14T01:50:48;15.80;95.40
47813;DHT22;34221;45.296;9.516;2023-05-14T01:51:04;15.80;95.40
47813;DHT22;34221;45.296;9.516;2023-05-14T01:51:19;15.70;95.50
47813;DHT22;34221;45.296;9.516;2023-05-14T01:51:34;15.70;95.50
47813;DHT22;34221;45.296;9.516;2023-05-14T01:51:50;15.70;95.50
47813;DHT22;34221;45.296;9.516;2023-05-14T01:52:06;15.70;95.60
47813;DHT22;34221;45.296;9.516;2023-05-14T01:52:22;15.70;95.60
47813;DHT22;34221;45.296;9.516;2023-05-14T01:52:37;15.70;95.70